Vauxhall, New Jersey
Current Conditions -  °F | °C
As of 3:51 PM on Monday 24 Nov 2014 (Local Time) from KEWR Reporting Station
Scattered Clouds Scattered Clouds  
Wind Chill: 73°   Ceiling: Unl
Heat Index: 73°   Visibility: 10mi
Dew Point: 55°   Wind: 24mph
Humidity: 53%   Direction: 200°SSW
Pressure: 29.58"   Gusts: 31mph
Location:  40.73°N, 74.28°W
Report Text: KEWR 242051Z 20021G27KT 10SM SCT038 23/13 A2958 RMK AO2 PK WND 20029/2028 SLP016 T02280128 55004 $
Loading
Personal Weather Stations






























Interactive Weather Map New forecast layout! Learn more

10-Day Weather Forecast

Advertisements
Track Severe Weather on mobile